Pittsburgh, Pennsylvania
Traffic Map
Current Weather Conditions
Pittsburgh, Pennsylvania
Overcast
Overcast

Feels Like: 0°
Wind Chill: Ceiling: 4700
Heat Index: Visibility: 10mi
Dew Point: -1° Wind: 16mph
Humidity: 65% Direction: 280° (W)
Pressure: 29.87in Gusts: 24mph
Raw Report DataKAGC 301153Z 28014G21KT 10SM FEW036 OVC047 05/M01 A2987 RMK AO2 SLP127 60001 70001 T00501011 10050 20039 53014
Traffic Incident Summary
Active as of:
Severity:
Category:
InformationThere was an issue retrieving the traffic information for this location. Please try a different location or try again shortly.
Advertisements
Track Severe Weather on mobile